Terminal Aerodrome Forecast
Issued by NWS Chicago, IL

Home | Current Version | Previous Version | Text Only | Print | Product List | Glossary On
Versions: 1 2 3 4 5 6 7 8 9 10 11 12 13 14 15 16 17 18 19 20 21 22
000
FTUS43 KLOT 250237 AAA
TAFRFD
TAF AMD
KRFD 250237Z 2503/2524 20004KT P6SM VCSH FEW060 BKN150
     FM250400 20004KT P6SM BKN150
     FM250900 16003KT 4SM BR SCT040 BKN200
     FM251600 15009KT P6SM SCT060
     FM252000 17010KT P6SM VCSH SCT040 BKN200
      TEMPO 2520/2524 4SM TSRA SCT030 OVC040CB=

USA.gov is the U.S. government's official web portal to all federal, state and local government web resources and services.